sensor_id;sensor_type;location;lat;lon;timestamp;P1;durP1;ratioP1;P2;durP2;ratioP2
29412;SDS011;16389;50.126;8.450;2022-12-05T00:00:14;7.90;;;3.90;;
29412;SDS011;16389;50.126;8.450;2022-12-05T00:02:41;9.07;;;6.05;;
29412;SDS011;16389;50.126;8.450;2022-12-05T00:05:07;7.35;;;4.70;;
29412;SDS011;16389;50.126;8.450;2022-12-05T00:07:35;10.23;;;5.50;;
29412;SDS011;16389;50.126;8.450;2022-12-05T00:10:00;7.15;;;4.05;;
29412;SDS011;16389;50.126;8.450;2022-12-05T00:12:26;10.05;;;5.05;;
29412;SDS011;16389;50.126;8.450;2022-12-05T00:14:52;10.25;;;5.90;;
29412;SDS011;16389;50.126;8.450;2022-12-05T00:17:17;12.00;;;6.05;;
29412;SDS011;16389;50.126;8.450;2022-12-05T00:19:43;9.20;;;5.93;;
29412;SDS011;16389;50.126;8.450;2022-12-05T00:22:09;6.57;;;4.43;;
29412;SDS011;16389;50.126;8.450;2022-12-05T00:24:34;12.88;;;6.00;;
29412;SDS011;16389;50.126;8.450;2022-12-05T00:27:00;9.48;;;5.60;;
29412;SDS011;16389;50.126;8.450;2022-12-05T00:29:25;8.63;;;4.55;;
29412;SDS011;16389;50.126;8.450;2022-12-05T00:31:51;8.07;;;6.10;;
29412;SDS011;16389;50.126;8.450;2022-12-05T00:34:17;9.32;;;5.25;;
29412;SDS011;16389;50.126;8.450;2022-12-05T00:36:42;9.77;;;5.47;;
29412;SDS011;16389;50.126;8.450;2022-12-05T00:39:09;10.10;;;4.80;;
29412;SDS011;16389;50.126;8.450;2022-12-05T00:44:04;6.70;;;4.13;;
29412;SDS011;16389;50.126;8.450;2022-12-05T00:46:30;8.98;;;5.05;;
29412;SDS011;16389;50.126;8.450;2022-12-05T00:48:58;7.95;;;4.95;;
29412;SDS011;16389;50.126;8.450;2022-12-05T00:51:29;12.32;;;5.65;;
29412;SDS011;16389;50.126;8.450;2022-12-05T00:54:01;10.48;;;5.30;;
29412;SDS011;16389;50.126;8.450;2022-12-05T00:56:29;9.52;;;5.68;;
29412;SDS011;16389;50.126;8.450;2022-12-05T00:58:56;12.45;;;5.25;;
29412;SDS011;16389;50.126;8.450;2022-12-05T01:01:24;8.25;;;5.05;;
29412;SDS011;16389;50.126;8.450;2022-12-05T01:03:57;6.95;;;4.60;;
29412;SDS011;16389;50.126;8.450;2022-12-05T01:06:24;10.88;;;5.43;;
29412;SDS011;16389;50.126;8.450;2022-12-05T01:08:49;10.43;;;5.18;;
29412;SDS011;16389;50.126;8.450;2022-12-05T01:11:17;9.40;;;4.95;;
29412;SDS011;16389;50.126;8.450;2022-12-05T01:13:44;11.25;;;5.72;;
29412;SDS011;16389;50.126;8.450;2022-12-05T01:16:44;8.45;;;4.85;;
29412;SDS011;16389;50.126;8.450;2022-12-05T01:19:04;10.60;;;4.47;;
29412;SDS011;16389;50.126;8.450;2022-12-05T01:21:32;8.68;;;5.15;;
29412;SDS011;16389;50.126;8.450;2022-12-05T01:23:57;8.50;;;5.72;;
29412;SDS011;16389;50.126;8.450;2022-12-05T01:26:23;9.13;;;5.80;;
29412;SDS011;16389;50.126;8.450;2022-12-05T01:28:49;9.98;;;5.90;;
29412;SDS011;16389;50.126;8.450;2022-12-05T01:33:53;8.40;;;4.93;;
29412;SDS011;16389;50.126;8.450;2022-12-05T01:36:20;8.40;;;5.25;;
29412;SDS011;16389;50.126;8.450;2022-12-05T01:38:46;7.70;;;4.10;;
29412;SDS011;16389;50.126;8.450;2022-12-05T01:46:38;10.38;;;5.95;;
29412;SDS011;16389;50.126;8.450;2022-12-05T01:49:09;6.03;;;5.00;;
29412;SDS011;16389;50.126;8.450;2022-12-05T01:51:39;9.48;;;5.68;;
29412;SDS011;16389;50.126;8.450;2022-12-05T01:54:07;7.97;;;5.07;;
29412;SDS011;16389;50.126;8.450;2022-12-05T01:56:34;7.78;;;5.43;;
29412;SDS011;16389;50.126;8.450;2022-12-05T01:59:01;8.60;;;4.65;;
29412;SDS011;16389;50.126;8.450;2022-12-05T02:01:29;7.82;;;5.15;;
29412;SDS011;16389;50.126;8.450;2022-12-05T02:03:55;8.00;;;4.78;;
29412;SDS011;16389;50.126;8.450;2022-12-05T02:06:22;7.68;;;4.40;;
29412;SDS011;16389;50.126;8.450;2022-12-05T02:08:50;8.30;;;4.57;;
29412;SDS011;16389;50.126;8.450;2022-12-05T02:11:17;11.63;;;5.25;;
29412;SDS011;16389;50.126;8.450;2022-12-05T02:24:36;11.70;;;5.22;;
29412;SDS011;16389;50.126;8.450;2022-12-05T02:32:34;9.07;;;4.45;;
29412;SDS011;16389;50.126;8.450;2022-12-05T02:41:11;8.55;;;5.28;;
29412;SDS011;16389;50.126;8.450;2022-12-05T02:44:03;6.43;;;4.13;;
29412;SDS011;16389;50.126;8.450;2022-12-05T02:46:36;6.40;;;4.85;;
29412;SDS011;16389;50.126;8.450;2022-12-05T02:49:05;10.00;;;5.07;;
29412;SDS011;16389;50.126;8.450;2022-12-05T02:51:47;6.65;;;4.43;;
29412;SDS011;16389;50.126;8.450;2022-12-05T02:54:20;5.50;;;4.05;;
29412;SDS011;16389;50.126;8.450;2022-12-05T02:56:52;6.18;;;4.53;;
29412;SDS011;16389;50.126;8.450;2022-12-05T02:59:20;9.63;;;4.78;;
29412;SDS011;16389;50.126;8.450;2022-12-05T03:01:46;8.93;;;4.43;;
29412;SDS011;16389;50.126;8.450;2022-12-05T03:04:13;8.55;;;5.15;;
29412;SDS011;16389;50.126;8.450;2022-12-05T03:06:41;8.23;;;4.38;;
29412;SDS011;16389;50.126;8.450;2022-12-05T03:09:11;9.10;;;5.15;;
29412;SDS011;16389;50.126;8.450;2022-12-05T03:11:40;6.75;;;3.88;;
29412;SDS011;16389;50.126;8.450;2022-12-05T03:14:14;9.38;;;5.50;;
29412;SDS011;16389;50.126;8.450;2022-12-05T03:16:48;6.43;;;4.20;;
29412;SDS011;16389;50.126;8.450;2022-12-05T03:19:17;9.25;;;5.30;;
29412;SDS011;16389;50.126;8.450;2022-12-05T03:21:50;7.00;;;4.45;;
29412;SDS011;16389;50.126;8.450;2022-12-05T03:24:20;7.05;;;4.00;;
29412;SDS011;16389;50.126;8.450;2022-12-05T03:27:02;10.00;;;4.72;;
29412;SDS011;16389;50.126;8.450;2022-12-05T03:32:31;7.88;;;4.70;;
29412;SDS011;16389;50.126;8.450;2022-12-05T03:38:15;9.05;;;4.15;;
29412;SDS011;16389;50.126;8.450;2022-12-05T03:40:47;7.75;;;3.80;;
29412;SDS011;16389;50.126;8.450;2022-12-05T03:46:43;8.15;;;4.18;;
29412;SDS011;16389;50.126;8.450;2022-12-05T03:54:37;5.72;;;3.58;;
29412;SDS011;16389;50.126;8.450;2022-12-05T03:57:11;11.45;;;4.20;;
29412;SDS011;16389;50.126;8.450;2022-12-05T03:59:45;7.07;;;4.53;;
29412;SDS011;16389;50.126;8.450;2022-12-05T04:02:25;8.65;;;4.63;;
29412;SDS011;16389;50.126;8.450;2022-12-05T04:05:12;8.00;;;4.57;;
29412;SDS011;16389;50.126;8.450;2022-12-05T04:07:44;6.45;;;4.07;;
29412;SDS011;16389;50.126;8.450;2022-12-05T04:10:15;11.48;;;4.28;;
29412;SDS011;16389;50.126;8.450;2022-12-05T04:12:46;7.25;;;3.83;;
29412;SDS011;16389;50.126;8.450;2022-12-05T04:15:20;8.33;;;5.00;;
29412;SDS011;16389;50.126;8.450;2022-12-05T04:23:36;6.70;;;4.57;;
29412;SDS011;16389;50.126;8.450;2022-12-05T04:26:05;7.75;;;5.45;;
29412;SDS011;16389;50.126;8.450;2022-12-05T04:28:49;10.52;;;6.15;;
29412;SDS011;16389;50.126;8.450;2022-12-05T04:31:23;8.90;;;4.80;;
29412;SDS011;16389;50.126;8.450;2022-12-05T04:33:55;12.98;;;5.07;;
29412;SDS011;16389;50.126;8.450;2022-12-05T04:36:32;7.78;;;5.43;;
29412;SDS011;16389;50.126;8.450;2022-12-05T04:39:22;6.90;;;4.43;;
29412;SDS011;16389;50.126;8.450;2022-12-05T04:42:21;6.30;;;3.97;;
29412;SDS011;16389;50.126;8.450;2022-12-05T04:44:54;8.50;;;4.28;;
29412;SDS011;16389;50.126;8.450;2022-12-05T04:47:25;9.63;;;4.85;;
29412;SDS011;16389;50.126;8.450;2022-12-05T04:49:59;7.47;;;4.40;;
29412;SDS011;16389;50.126;8.450;2022-12-05T04:52:28;13.88;;;5.55;;
29412;SDS011;16389;50.126;8.450;2022-12-05T04:57:32;7.18;;;5.25;;
29412;SDS011;16389;50.126;8.450;2022-12-05T05:00:01;10.18;;;6.00;;
29412;SDS011;16389;50.126;8.450;2022-12-05T05:02:32;9.85;;;4.47;;
29412;SDS011;16389;50.126;8.450;2022-12-05T05:05:05;13.02;;;4.95;;
29412;SDS011;16389;50.126;8.450;2022-12-05T05:10:07;7.32;;;4.30;;
29412;SDS011;16389;50.126;8.450;2022-12-05T05:12:36;7.05;;;4.10;;
29412;SDS011;16389;50.126;8.450;2022-12-05T05:15:01;6.20;;;4.82;;
29412;SDS011;16389;50.126;8.450;2022-12-05T05:17:27;11.05;;;5.43;;
29412;SDS011;16389;50.126;8.450;2022-12-05T05:19:53;14.10;;;5.43;;
29412;SDS011;16389;50.126;8.450;2022-12-05T05:22:38;10.38;;;4.70;;
29412;SDS011;16389;50.126;8.450;2022-12-05T05:25:04;10.07;;;4.53;;
29412;SDS011;16389;50.126;8.450;2022-12-05T05:27:29;9.13;;;5.22;;
29412;SDS011;16389;50.126;8.450;2022-12-05T05:29:55;9.10;;;4.90;;
29412;SDS011;16389;50.126;8.450;2022-12-05T05:32:20;10.32;;;6.68;;
29412;SDS011;16389;50.126;8.450;2022-12-05T05:34:46;7.47;;;5.30;;
29412;SDS011;16389;50.126;8.450;2022-12-05T05:37:11;10.93;;;5.50;;
29412;SDS011;16389;50.126;8.450;2022-12-05T05:39:37;13.23;;;6.20;;
29412;SDS011;16389;50.126;8.450;2022-12-05T05:42:03;13.18;;;5.60;;
29412;SDS011;16389;50.126;8.450;2022-12-05T05:44:28;13.02;;;5.68;;
29412;SDS011;16389;50.126;8.450;2022-12-05T05:46:54;13.38;;;5.68;;
29412;SDS011;16389;50.126;8.450;2022-12-05T05:49:19;20.13;;;6.78;;
29412;SDS011;16389;50.126;8.450;2022-12-05T05:51:45;22.92;;;7.20;;
29412;SDS011;16389;50.126;8.450;2022-12-05T05:54:10;14.63;;;6.30;;
29412;SDS011;16389;50.126;8.450;2022-12-05T05:56:36;10.77;;;5.47;;
29412;SDS011;16389;50.126;8.450;2022-12-05T05:59:03;18.42;;;7.13;;
29412;SDS011;16389;50.126;8.450;2022-12-05T06:01:29;21.95;;;7.10;;
29412;SDS011;16389;50.126;8.450;2022-12-05T06:03:55;11.57;;;6.47;;
29412;SDS011;16389;50.126;8.450;2022-12-05T06:06:22;16.85;;;7.97;;
29412;SDS011;16389;50.126;8.450;2022-12-05T06:08:48;13.50;;;7.22;;
29412;SDS011;16389;50.126;8.450;2022-12-05T06:11:18;16.30;;;6.97;;
29412;SDS011;16389;50.126;8.450;2022-12-05T06:13:45;14.13;;;6.82;;
29412;SDS011;16389;50.126;8.450;2022-12-05T06:16:12;16.83;;;7.18;;
29412;SDS011;16389;50.126;8.450;2022-12-05T06:18:38;17.10;;;6.90;;
29412;SDS011;16389;50.126;8.450;2022-12-05T06:21:04;12.57;;;6.22;;
29412;SDS011;16389;50.126;8.450;2022-12-05T06:23:32;24.85;;;8.48;;
29412;SDS011;16389;50.126;8.450;2022-12-05T06:26:02;15.73;;;7.07;;
29412;SDS011;16389;50.126;8.450;2022-12-05T06:28:28;16.25;;;6.78;;
29412;SDS011;16389;50.126;8.450;2022-12-05T06:30:54;19.65;;;7.30;;
29412;SDS011;16389;50.126;8.450;2022-12-05T06:33:20;16.00;;;7.78;;
29412;SDS011;16389;50.126;8.450;2022-12-05T06:35:45;11.15;;;6.65;;
29412;SDS011;16389;50.126;8.450;2022-12-05T06:38:11;14.02;;;6.82;;
29412;SDS011;16389;50.126;8.450;2022-12-05T06:40:40;16.10;;;6.78;;
29412;SDS011;16389;50.126;8.450;2022-12-05T06:43:07;17.35;;;7.32;;
29412;SDS011;16389;50.126;8.450;2022-12-05T06:45:36;17.90;;;7.43;;
29412;SDS011;16389;50.126;8.450;2022-12-05T06:48:02;13.88;;;6.30;;
29412;SDS011;16389;50.126;8.450;2022-12-05T06:50:27;17.23;;;6.75;;
29412;SDS011;16389;50.126;8.450;2022-12-05T06:52:53;14.70;;;6.15;;
29412;SDS011;16389;50.126;8.450;2022-12-05T06:55:18;17.30;;;6.65;;
29412;SDS011;16389;50.126;8.450;2022-12-05T06:57:44;13.43;;;5.88;;
29412;SDS011;16389;50.126;8.450;2022-12-05T07:00:10;16.27;;;5.72;;
29412;SDS011;16389;50.126;8.450;2022-12-05T07:02:54;15.35;;;6.60;;
29412;SDS011;16389;50.126;8.450;2022-12-05T07:05:20;16.27;;;8.02;;
29412;SDS011;16389;50.126;8.450;2022-12-05T07:07:45;10.20;;;5.93;;
29412;SDS011;16389;50.126;8.450;2022-12-05T07:10:11;10.95;;;7.28;;
29412;SDS011;16389;50.126;8.450;2022-12-05T07:12:37;65.68;;;21.95;;
29412;SDS011;16389;50.126;8.450;2022-12-05T07:15:03;28.30;;;11.95;;
29412;SDS011;16389;50.126;8.450;2022-12-05T07:17:28;17.38;;;9.80;;
29412;SDS011;16389;50.126;8.450;2022-12-05T07:19:54;13.38;;;7.95;;
29412;SDS011;16389;50.126;8.450;2022-12-05T07:22:20;41.75;;;15.25;;
29412;SDS011;16389;50.126;8.450;2022-12-05T07:24:47;38.35;;;12.85;;
29412;SDS011;16389;50.126;8.450;2022-12-05T07:27:15;24.15;;;10.77;;
29412;SDS011;16389;50.126;8.450;2022-12-05T07:29:41;19.83;;;6.78;;
29412;SDS011;16389;50.126;8.450;2022-12-05T07:32:06;21.63;;;8.05;;
29412;SDS011;16389;50.126;8.450;2022-12-05T07:34:32;11.77;;;6.38;;
29412;SDS011;16389;50.126;8.450;2022-12-05T07:36:58;15.65;;;6.43;;
29412;SDS011;16389;50.126;8.450;2022-12-05T07:39:24;15.10;;;7.85;;
29412;SDS011;16389;50.126;8.450;2022-12-05T07:41:50;15.07;;;7.05;;
29412;SDS011;16389;50.126;8.450;2022-12-05T07:44:16;16.00;;;7.28;;
29412;SDS011;16389;50.126;8.450;2022-12-05T07:46:41;18.98;;;8.27;;
29412;SDS011;16389;50.126;8.450;2022-12-05T07:49:07;19.63;;;7.15;;
29412;SDS011;16389;50.126;8.450;2022-12-05T07:51:33;15.30;;;6.40;;
29412;SDS011;16389;50.126;8.450;2022-12-05T07:53:59;27.50;;;11.63;;
29412;SDS011;16389;50.126;8.450;2022-12-05T07:56:25;33.03;;;13.73;;
29412;SDS011;16389;50.126;8.450;2022-12-05T07:58:51;24.92;;;8.73;;
29412;SDS011;16389;50.126;8.450;2022-12-05T08:01:19;20.23;;;8.43;;
29412;SDS011;16389;50.126;8.450;2022-12-05T08:03:49;22.80;;;11.00;;
29412;SDS011;16389;50.126;8.450;2022-12-05T08:06:18;21.05;;;9.55;;
29412;SDS011;16389;50.126;8.450;2022-12-05T08:08:46;18.55;;;7.80;;
29412;SDS011;16389;50.126;8.450;2022-12-05T08:11:16;16.05;;;7.78;;
29412;SDS011;16389;50.126;8.450;2022-12-05T08:13:45;14.18;;;7.93;;
29412;SDS011;16389;50.126;8.450;2022-12-05T08:16:13;14.73;;;7.07;;
29412;SDS011;16389;50.126;8.450;2022-12-05T08:18:44;18.00;;;8.88;;
29412;SDS011;16389;50.126;8.450;2022-12-05T08:21:11;18.02;;;8.23;;
29412;SDS011;16389;50.126;8.450;2022-12-05T08:23:38;13.70;;;7.10;;
29412;SDS011;16389;50.126;8.450;2022-12-05T08:26:06;18.05;;;8.82;;
29412;SDS011;16389;50.126;8.450;2022-12-05T08:28:34;10.48;;;6.25;;
29412;SDS011;16389;50.126;8.450;2022-12-05T08:31:06;27.20;;;10.52;;
29412;SDS011;16389;50.126;8.450;2022-12-05T08:33:42;16.40;;;9.70;;
29412;SDS011;16389;50.126;8.450;2022-12-05T08:36:10;16.25;;;8.95;;
29412;SDS011;16389;50.126;8.450;2022-12-05T08:38:37;15.35;;;6.95;;
29412;SDS011;16389;50.126;8.450;2022-12-05T08:41:04;15.73;;;8.60;;
29412;SDS011;16389;50.126;8.450;2022-12-05T08:43:33;23.88;;;11.50;;
29412;SDS011;16389;50.126;8.450;2022-12-05T08:45:59;17.58;;;8.52;;
29412;SDS011;16389;50.126;8.450;2022-12-05T08:48:26;12.05;;;6.78;;
29412;SDS011;16389;50.126;8.450;2022-12-05T08:50:52;17.35;;;8.70;;
29412;SDS011;16389;50.126;8.450;2022-12-05T08:53:18;12.88;;;7.78;;
29412;SDS011;16389;50.126;8.450;2022-12-05T08:55:44;11.93;;;7.00;;
29412;SDS011;16389;50.126;8.450;2022-12-05T08:58:10;15.38;;;8.75;;
29412;SDS011;16389;50.126;8.450;2022-12-05T09:00:36;16.02;;;8.95;;
29412;SDS011;16389;50.126;8.450;2022-12-05T09:03:02;11.88;;;8.25;;
29412;SDS011;16389;50.126;8.450;2022-12-05T09:05:28;13.68;;;9.05;;
29412;SDS011;16389;50.126;8.450;2022-12-05T09:07:53;18.38;;;9.60;;
29412;SDS011;16389;50.126;8.450;2022-12-05T09:10:19;20.30;;;9.00;;
29412;SDS011;16389;50.126;8.450;2022-12-05T09:12:45;18.10;;;9.05;;
29412;SDS011;16389;50.126;8.450;2022-12-05T09:15:10;11.45;;;6.85;;
29412;SDS011;16389;50.126;8.450;2022-12-05T09:17:36;17.20;;;7.88;;
29412;SDS011;16389;50.126;8.450;2022-12-05T09:20:03;16.73;;;8.23;;
29412;SDS011;16389;50.126;8.450;2022-12-05T09:22:30;16.98;;;7.63;;
29412;SDS011;16389;50.126;8.450;2022-12-05T09:24:56;15.73;;;8.30;;
29412;SDS011;16389;50.126;8.450;2022-12-05T09:27:21;15.45;;;7.32;;
29412;SDS011;16389;50.126;8.450;2022-12-05T09:29:47;19.35;;;8.35;;
29412;SDS011;16389;50.126;8.450;2022-12-05T09:32:12;13.98;;;7.82;;
29412;SDS011;16389;50.126;8.450;2022-12-05T09:34:38;17.85;;;9.45;;
29412;SDS011;16389;50.126;8.450;2022-12-05T09:37:04;18.48;;;9.52;;
29412;SDS011;16389;50.126;8.450;2022-12-05T09:39:31;18.55;;;7.15;;
29412;SDS011;16389;50.126;8.450;2022-12-05T09:42:01;25.98;;;9.05;;
29412;SDS011;16389;50.126;8.450;2022-12-05T09:47:52;16.92;;;8.35;;
29412;SDS011;16389;50.126;8.450;2022-12-05T09:50:21;20.95;;;7.70;;
29412;SDS011;16389;50.126;8.450;2022-12-05T09:56:04;15.40;;;9.27;;
29412;SDS011;16389;50.126;8.450;2022-12-05T10:01:10;22.60;;;10.48;;
29412;SDS011;16389;50.126;8.450;2022-12-05T10:06:31;15.15;;;8.13;;
29412;SDS011;16389;50.126;8.450;2022-12-05T10:09:37;25.30;;;7.20;;
29412;SDS011;16389;50.126;8.450;2022-12-05T10:12:32;17.73;;;8.10;;
29412;SDS011;16389;50.126;8.450;2022-12-05T10:15:31;16.88;;;8.40;;
29412;SDS011;16389;50.126;8.450;2022-12-05T10:20:59;16.35;;;7.90;;
29412;SDS011;16389;50.126;8.450;2022-12-05T10:23:34;14.55;;;6.95;;
29412;SDS011;16389;50.126;8.450;2022-12-05T10:26:08;17.40;;;9.18;;
29412;SDS011;16389;50.126;8.450;2022-12-05T10:28:39;16.80;;;7.55;;
29412;SDS011;16389;50.126;8.450;2022-12-05T10:31:26;13.88;;;7.43;;
29412;SDS011;16389;50.126;8.450;2022-12-05T10:33:57;18.40;;;9.73;;
29412;SDS011;16389;50.126;8.450;2022-12-05T10:36:29;22.45;;;8.73;;
29412;SDS011;16389;50.126;8.450;2022-12-05T10:38:55;22.55;;;7.97;;
29412;SDS011;16389;50.126;8.450;2022-12-05T10:41:21;19.05;;;8.32;;
29412;SDS011;16389;50.126;8.450;2022-12-05T10:43:47;20.70;;;7.32;;
29412;SDS011;16389;50.126;8.450;2022-12-05T10:46:14;18.65;;;9.75;;
29412;SDS011;16389;50.126;8.450;2022-12-05T10:48:41;16.48;;;8.68;;
29412;SDS011;16389;50.126;8.450;2022-12-05T10:51:10;15.43;;;8.80;;
29412;SDS011;16389;50.126;8.450;2022-12-05T10:53:40;19.52;;;10.60;;
29412;SDS011;16389;50.126;8.450;2022-12-05T10:56:34;18.63;;;8.77;;
29412;SDS011;16389;50.126;8.450;2022-12-05T10:59:09;23.75;;;8.43;;
29412;SDS011;16389;50.126;8.450;2022-12-05T11:01:46;16.88;;;8.60;;
29412;SDS011;16389;50.126;8.450;2022-12-05T11:10:24;18.08;;;8.13;;
29412;SDS011;16389;50.126;8.450;2022-12-05T11:12:55;19.33;;;8.07;;
29412;SDS011;16389;50.126;8.450;2022-12-05T11:15:23;15.70;;;8.40;;
29412;SDS011;16389;50.126;8.450;2022-12-05T11:17:52;21.45;;;7.30;;
29412;SDS011;16389;50.126;8.450;2022-12-05T11:22:49;13.43;;;7.18;;
29412;SDS011;16389;50.126;8.450;2022-12-05T11:25:49;17.35;;;8.00;;
29412;SDS011;16389;50.126;8.450;2022-12-05T11:33:38;13.00;;;8.02;;
29412;SDS011;16389;50.126;8.450;2022-12-05T11:36:11;11.07;;;6.35;;
29412;SDS011;16389;50.126;8.450;2022-12-05T11:38:45;15.93;;;7.18;;
29412;SDS011;16389;50.126;8.450;2022-12-05T11:41:15;12.68;;;5.80;;
29412;SDS011;16389;50.126;8.450;2022-12-05T12:07:14;17.98;;;7.68;;
29412;SDS011;16389;50.126;8.450;2022-12-05T12:43:06;19.15;;;9.07;;
29412;SDS011;16389;50.126;8.450;2022-12-05T12:45:51;18.20;;;8.38;;
29412;SDS011;16389;50.126;8.450;2022-12-05T12:48:38;15.63;;;7.60;;
29412;SDS011;16389;50.126;8.450;2022-12-05T12:51:22;18.55;;;8.43;;
29412;SDS011;16389;50.126;8.450;2022-12-05T12:59:23;18.45;;;7.45;;
29412;SDS011;16389;50.126;8.450;2022-12-05T13:04:57;14.18;;;6.95;;
29412;SDS011;16389;50.126;8.450;2022-12-05T13:09:53;9.65;;;6.70;;
29412;SDS011;16389;50.126;8.450;2022-12-05T13:12:27;20.35;;;6.72;;
29412;SDS011;16389;50.126;8.450;2022-12-05T13:17:28;11.43;;;6.07;;
29412;SDS011;16389;50.126;8.450;2022-12-05T13:19:56;12.55;;;6.85;;
29412;SDS011;16389;50.126;8.450;2022-12-05T13:22:23;13.30;;;7.25;;
29412;SDS011;16389;50.126;8.450;2022-12-05T13:24:52;18.05;;;6.75;;
29412;SDS011;16389;50.126;8.450;2022-12-05T13:27:19;15.05;;;6.70;;
29412;SDS011;16389;50.126;8.450;2022-12-05T13:29:47;11.77;;;6.20;;
29412;SDS011;16389;50.126;8.450;2022-12-05T13:32:24;15.27;;;7.05;;
29412;SDS011;16389;50.126;8.450;2022-12-05T13:34:54;18.08;;;7.05;;
29412;SDS011;16389;50.126;8.450;2022-12-05T13:37:26;14.65;;;6.18;;
29412;SDS011;16389;50.126;8.450;2022-12-05T13:43:08;8.02;;;6.13;;
29412;SDS011;16389;50.126;8.450;2022-12-05T13:45:35;9.18;;;6.72;;
29412;SDS011;16389;50.126;8.450;2022-12-05T13:48:12;11.23;;;6.43;;
29412;SDS011;16389;50.126;8.450;2022-12-05T13:50:47;9.98;;;5.22;;
29412;SDS011;16389;50.126;8.450;2022-12-05T13:56:02;8.70;;;6.38;;
29412;SDS011;16389;50.126;8.450;2022-12-05T13:58:54;9.05;;;5.43;;
29412;SDS011;16389;50.126;8.450;2022-12-05T14:09:02;10.45;;;6.93;;
29412;SDS011;16389;50.126;8.450;2022-12-05T14:11:29;10.38;;;6.25;;
29412;SDS011;16389;50.126;8.450;2022-12-05T14:13:54;10.93;;;6.82;;
29412;SDS011;16389;50.126;8.450;2022-12-05T14:18:57;8.30;;;5.45;;
29412;SDS011;16389;50.126;8.450;2022-12-05T14:37:57;10.63;;;6.65;;
29412;SDS011;16389;50.126;8.450;2022-12-05T14:40:30;8.75;;;5.70;;
29412;SDS011;16389;50.126;8.450;2022-12-05T14:43:02;10.52;;;6.68;;
29412;SDS011;16389;50.126;8.450;2022-12-05T14:50:46;8.98;;;6.10;;
29412;SDS011;16389;50.126;8.450;2022-12-05T14:56:10;9.55;;;5.75;;
29412;SDS011;16389;50.126;8.450;2022-12-05T15:01:26;8.13;;;5.22;;
29412;SDS011;16389;50.126;8.450;2022-12-05T15:04:05;10.82;;;6.10;;
29412;SDS011;16389;50.126;8.450;2022-12-05T15:06:59;12.18;;;5.93;;
29412;SDS011;16389;50.126;8.450;2022-12-05T15:12:28;12.15;;;6.88;;
29412;SDS011;16389;50.126;8.450;2022-12-05T15:14:58;6.68;;;5.13;;
29412;SDS011;16389;50.126;8.450;2022-12-05T15:17:27;8.02;;;5.75;;
29412;SDS011;16389;50.126;8.450;2022-12-05T15:20:05;13.90;;;6.18;;
29412;SDS011;16389;50.126;8.450;2022-12-05T15:22:39;9.23;;;5.55;;
29412;SDS011;16389;50.126;8.450;2022-12-05T15:27:56;8.18;;;6.95;;
29412;SDS011;16389;50.126;8.450;2022-12-05T15:30:24;9.57;;;5.68;;
29412;SDS011;16389;50.126;8.450;2022-12-05T15:32:51;9.43;;;5.75;;
29412;SDS011;16389;50.126;8.450;2022-12-05T15:35:17;10.68;;;5.90;;
29412;SDS011;16389;50.126;8.450;2022-12-05T15:37:51;7.57;;;5.70;;
29412;SDS011;16389;50.126;8.450;2022-12-05T15:40:23;10.05;;;6.75;;
29412;SDS011;16389;50.126;8.450;2022-12-05T15:42:56;13.75;;;7.13;;
29412;SDS011;16389;50.126;8.450;2022-12-05T15:47:53;10.93;;;6.97;;
29412;SDS011;16389;50.126;8.450;2022-12-05T15:50:36;10.05;;;6.65;;
29412;SDS011;16389;50.126;8.450;2022-12-05T15:58:28;10.00;;;6.20;;
29412;SDS011;16389;50.126;8.450;2022-12-05T16:01:04;11.02;;;5.78;;
29412;SDS011;16389;50.126;8.450;2022-12-05T16:03:39;9.05;;;6.57;;
29412;SDS011;16389;50.126;8.450;2022-12-05T16:06:12;8.35;;;6.03;;
29412;SDS011;16389;50.126;8.450;2022-12-05T16:08:59;8.57;;;5.00;;
29412;SDS011;16389;50.126;8.450;2022-12-05T16:11:30;12.27;;;6.15;;
29412;SDS011;16389;50.126;8.450;2022-12-05T16:13:57;8.75;;;4.95;;
29412;SDS011;16389;50.126;8.450;2022-12-05T16:16:26;15.02;;;6.57;;
29412;SDS011;16389;50.126;8.450;2022-12-05T16:18:55;8.90;;;4.83;;
29412;SDS011;16389;50.126;8.450;2022-12-05T16:21:27;9.90;;;5.45;;
29412;SDS011;16389;50.126;8.450;2022-12-05T16:24:17;7.60;;;5.78;;
29412;SDS011;16389;50.126;8.450;2022-12-05T16:30:06;9.75;;;5.03;;
29412;SDS011;16389;50.126;8.450;2022-12-05T16:32:48;11.55;;;5.55;;
29412;SDS011;16389;50.126;8.450;2022-12-05T16:38:04;8.93;;;5.07;;
29412;SDS011;16389;50.126;8.450;2022-12-05T16:40:30;9.55;;;5.70;;
29412;SDS011;16389;50.126;8.450;2022-12-05T16:43:03;6.82;;;5.38;;
29412;SDS011;16389;50.126;8.450;2022-12-05T16:45:41;10.20;;;5.88;;
29412;SDS011;16389;50.126;8.450;2022-12-05T16:48:16;10.48;;;6.32;;
29412;SDS011;16389;50.126;8.450;2022-12-05T16:50:47;7.13;;;4.85;;
29412;SDS011;16389;50.126;8.450;2022-12-05T16:53:18;9.05;;;5.55;;
29412;SDS011;16389;50.126;8.450;2022-12-05T16:55:46;8.73;;;4.72;;
29412;SDS011;16389;50.126;8.450;2022-12-05T16:58:22;12.05;;;5.95;;
29412;SDS011;16389;50.126;8.450;2022-12-05T17:00:49;10.30;;;5.32;;
29412;SDS011;16389;50.126;8.450;2022-12-05T17:03:15;8.23;;;5.65;;
29412;SDS011;16389;50.126;8.450;2022-12-05T17:05:42;10.95;;;5.57;;
29412;SDS011;16389;50.126;8.450;2022-12-05T17:08:07;7.13;;;4.57;;
29412;SDS011;16389;50.126;8.450;2022-12-05T17:10:33;8.23;;;4.65;;
29412;SDS011;16389;50.126;8.450;2022-12-05T17:12:59;7.72;;;5.70;;
29412;SDS011;16389;50.126;8.450;2022-12-05T17:15:26;7.35;;;5.82;;
29412;SDS011;16389;50.126;8.450;2022-12-05T17:17:52;6.50;;;4.85;;
29412;SDS011;16389;50.126;8.450;2022-12-05T17:20:18;8.27;;;4.97;;
29412;SDS011;16389;50.126;8.450;2022-12-05T17:22:44;7.70;;;4.60;;
29412;SDS011;16389;50.126;8.450;2022-12-05T17:25:22;9.07;;;4.63;;
29412;SDS011;16389;50.126;8.450;2022-12-05T17:27:57;8.70;;;5.47;;
29412;SDS011;16389;50.126;8.450;2022-12-05T17:30:23;9.43;;;4.75;;
29412;SDS011;16389;50.126;8.450;2022-12-05T17:32:49;8.30;;;5.35;;
29412;SDS011;16389;50.126;8.450;2022-12-05T17:35:15;8.18;;;5.60;;
29412;SDS011;16389;50.126;8.450;2022-12-05T17:37:41;6.70;;;5.40;;
29412;SDS011;16389;50.126;8.450;2022-12-05T17:40:07;5.70;;;3.72;;
29412;SDS011;16389;50.126;8.450;2022-12-05T17:42:33;5.25;;;3.95;;
29412;SDS011;16389;50.126;8.450;2022-12-05T17:44:59;8.18;;;4.28;;
29412;SDS011;16389;50.126;8.450;2022-12-05T17:47:25;7.88;;;4.53;;
29412;SDS011;16389;50.126;8.450;2022-12-05T17:49:50;5.78;;;3.35;;
29412;SDS011;16389;50.126;8.450;2022-12-05T17:52:16;7.80;;;4.13;;
29412;SDS011;16389;50.126;8.450;2022-12-05T17:54:42;7.20;;;4.22;;
29412;SDS011;16389;50.126;8.450;2022-12-05T17:57:08;6.38;;;4.10;;
29412;SDS011;16389;50.126;8.450;2022-12-05T17:59:34;15.05;;;4.45;;
29412;SDS011;16389;50.126;8.450;2022-12-05T18:01:59;6.82;;;4.93;;
29412;SDS011;16389;50.126;8.450;2022-12-05T18:04:25;7.32;;;3.80;;
29412;SDS011;16389;50.126;8.450;2022-12-05T18:06:51;6.85;;;3.85;;
29412;SDS011;16389;50.126;8.450;2022-12-05T18:09:16;7.93;;;4.00;;
29412;SDS011;16389;50.126;8.450;2022-12-05T18:11:42;6.45;;;3.63;;
29412;SDS011;16389;50.126;8.450;2022-12-05T18:14:07;8.88;;;3.85;;
29412;SDS011;16389;50.126;8.450;2022-12-05T18:16:34;6.10;;;3.60;;
29412;SDS011;16389;50.126;8.450;2022-12-05T18:18:59;6.88;;;4.07;;
29412;SDS011;16389;50.126;8.450;2022-12-05T18:21:25;7.90;;;3.85;;
29412;SDS011;16389;50.126;8.450;2022-12-05T18:23:51;7.53;;;5.10;;
29412;SDS011;16389;50.126;8.450;2022-12-05T18:26:17;8.27;;;3.97;;
29412;SDS011;16389;50.126;8.450;2022-12-05T18:28:42;5.68;;;4.22;;
29412;SDS011;16389;50.126;8.450;2022-12-05T18:31:12;5.20;;;3.72;;
29412;SDS011;16389;50.126;8.450;2022-12-05T18:33:39;6.85;;;4.32;;
29412;SDS011;16389;50.126;8.450;2022-12-05T18:36:05;8.93;;;4.93;;